SWR340 LPPT-BGGH
Flight info
| Callsign | SWR340 |
|---|---|
| Flight time | 1h 33m |
| Altitude | 38000 |
| Route | ELNUB DCT ASMAR T12 ARMED/M085F380 DCT 4515N DCT 5120N DCT 5525N DCT 5830N DCT H6035 DCT 6240N DCT OSTED DCT 31SF DCT EVULO DCT ERALA |
| Aircraft | A359/H-SDE2E3GHIJ3J4J5LM1ORWXY/LB1D1 |
Departure
| Time | 2026-05-08 21:44 |
|---|---|
| Airport | Lisbon Humberto Delgado Airport (LPPT) |
Arrival
| Time | 2026-05-08 23:17 |
|---|---|
| Airport | Nuuk International Airport (BGGH) |
| Time | Latitude | Longitude | Altitude | Speed | Heading |
|---|---|---|---|---|---|
| 2026-05-08 21:22 | 38.77608 | -9.13205 | 343 ft | 0 kts | 78° |
| 2026-05-08 21:32 | 38.77608 | -9.13206 | 343 ft | 2 kts | 78° |
| 2026-05-08 21:32 | 38.77603 | -9.13237 | 354 ft | 4 kts | 92° |
| 2026-05-08 21:33 | 38.77607 | -9.13263 | 354 ft | 4 kts | 109° |
| 2026-05-08 21:33 | 38.77612 | -9.13293 | 355 ft | 3 kts | 76° |
| 2026-05-08 21:33 | 38.77603 | -9.13322 | 355 ft | 4 kts | 32° |
| 2026-05-08 21:33 | 38.77581 | -9.13324 | 355 ft | 4 kts | 338° |
| 2026-05-08 21:34 | 38.77558 | -9.13313 | 355 ft | 2 kts | 348° |
| 2026-05-08 21:34 | 38.77559 | -9.13311 | 355 ft | 1 kts | 19° |
| 2026-05-08 21:37 | 38.77564 | -9.13312 | 355 ft | 2 kts | 1° |
| 2026-05-08 21:37 | 38.77628 | -9.13317 | 347 ft | 16 kts | 356° |
| 2026-05-08 21:37 | 38.77751 | -9.13343 | 355 ft | 17 kts | 348° |
| 2026-05-08 21:37 | 38.77853 | -9.13371 | 354 ft | 14 kts | 348° |
| 2026-05-08 21:38 | 38.77943 | -9.13395 | 364 ft | 12 kts | 348° |
| 2026-05-08 21:38 | 38.78014 | -9.13414 | 367 ft | 9 kts | 348° |
| 2026-05-08 21:38 | 38.78075 | -9.13430 | 371 ft | 12 kts | 348° |
| 2026-05-08 21:38 | 38.78188 | -9.13461 | 375 ft | 21 kts | 348° |
| 2026-05-08 21:39 | 38.78366 | -9.13508 | 375 ft | 31 kts | 348° |
| 2026-05-08 21:39 | 38.78572 | -9.13564 | 378 ft | 29 kts | 348° |
| 2026-05-08 21:39 | 38.78761 | -9.13505 | 373 ft | 29 kts | 23° |
| 2026-05-08 21:39 | 38.78966 | -9.13395 | 359 ft | 34 kts | 22° |
| 2026-05-08 21:40 | 38.79190 | -9.13276 | 361 ft | 35 kts | 22° |
| 2026-05-08 21:40 | 38.79408 | -9.13158 | 365 ft | 34 kts | 22° |
| 2026-05-08 21:40 | 38.79606 | -9.13053 | 372 ft | 28 kts | 22° |
| 2026-05-08 21:41 | 38.79771 | -9.12895 | 362 ft | 11 kts | 110° |
| 2026-05-08 21:41 | 38.79767 | -9.12883 | 366 ft | 0 kts | 112° |
| 2026-05-08 21:43 | 38.79754 | -9.12844 | 363 ft | 8 kts | 114° |
| 2026-05-08 21:43 | 38.79714 | -9.12766 | 366 ft | 10 kts | 146° |
| 2026-05-08 21:43 | 38.79663 | -9.12772 | 360 ft | 0 kts | 203° |
| 2026-05-08 21:43 | 38.79646 | -9.12781 | 362 ft | 22 kts | 203° |
| 2026-05-08 21:44 | 38.79231 | -9.13005 | 363 ft | 105 kts | 202° |
| 2026-05-08 21:44 | 38.78322 | -9.13493 | 394 ft | 171 kts | 202° |
| 2026-05-08 21:44 | 38.77207 | -9.14097 | 1241 ft | 175 kts | 200° |
| 2026-05-08 21:44 | 38.76067 | -9.14726 | 2123 ft | 184 kts | 199° |
| 2026-05-08 21:45 | 38.74834 | -9.15394 | 2438 ft | 203 kts | 199° |
| 2026-05-08 21:45 | 38.73459 | -9.16132 | 2765 ft | 223 kts | 200° |
| 2026-05-08 21:45 | 38.72004 | -9.16918 | 3378 ft | 229 kts | 200° |
| 2026-05-08 21:45 | 38.70532 | -9.17715 | 4030 ft | 231 kts | 201° |
| 2026-05-08 21:46 | 38.69055 | -9.18509 | 4695 ft | 235 kts | 200° |
| 2026-05-08 21:46 | 38.67534 | -9.19369 | 5359 ft | 238 kts | 205° |
| 2026-05-08 21:46 | 38.66216 | -9.20655 | 6054 ft | 248 kts | 225° |
| 2026-05-08 21:46 | 38.65386 | -9.22622 | 6751 ft | 260 kts | 249° |
| 2026-05-08 21:47 | 38.65330 | -9.24991 | 7412 ft | 278 kts | 277° |
| 2026-05-08 21:47 | 38.65976 | -9.27362 | 8099 ft | 287 kts | 288° |
| 2026-05-08 21:47 | 38.67010 | -9.29591 | 8833 ft | 296 kts | 304° |
| 2026-05-08 21:47 | 38.68392 | -9.31584 | 9568 ft | 302 kts | 310° |
| 2026-05-08 21:48 | 38.69915 | -9.33480 | 10139 ft | 312 kts | 313° |
| 2026-05-08 21:48 | 38.71573 | -9.35392 | 10398 ft | 331 kts | 315° |
| 2026-05-08 21:48 | 38.73364 | -9.37382 | 10686 ft | 349 kts | 315° |
| 2026-05-08 21:48 | 38.75253 | -9.39462 | 10964 ft | 367 kts | 315° |
| 2026-05-08 21:49 | 38.77231 | -9.41654 | 11244 ft | 383 kts | 315° |
| 2026-05-08 21:49 | 38.79272 | -9.43940 | 11628 ft | 394 kts | 315° |
| 2026-05-08 21:49 | 38.81339 | -9.46273 | 12227 ft | 398 kts | 315° |
| 2026-05-08 21:49 | 38.83399 | -9.48610 | 12879 ft | 401 kts | 315° |
| 2026-05-08 21:50 | 38.85524 | -9.51029 | 13501 ft | 405 kts | 315° |
| 2026-05-08 21:50 | 38.87614 | -9.53411 | 14056 ft | 409 kts | 314° |
| 2026-05-08 21:50 | 38.89752 | -9.55853 | 14572 ft | 413 kts | 314° |
| 2026-05-08 21:50 | 38.91917 | -9.58327 | 15108 ft | 417 kts | 314° |
| 2026-05-08 21:51 | 38.94095 | -9.60818 | 15640 ft | 421 kts | 314° |
| 2026-05-08 21:51 | 38.96289 | -9.63330 | 16167 ft | 425 kts | 314° |
| 2026-05-08 21:51 | 38.98508 | -9.65872 | 16676 ft | 429 kts | 314° |
| 2026-05-08 21:51 | 39.00748 | -9.68439 | 17182 ft | 433 kts | 314° |
| 2026-05-08 21:52 | 39.03005 | -9.71027 | 17732 ft | 436 kts | 314° |
| 2026-05-08 21:52 | 39.05279 | -9.73638 | 18241 ft | 440 kts | 314° |
| 2026-05-08 21:52 | 39.07574 | -9.76275 | 18728 ft | 444 kts | 314° |
| 2026-05-08 21:52 | 39.09888 | -9.78937 | 19190 ft | 448 kts | 314° |
| 2026-05-08 21:53 | 39.11429 | -9.80712 | 19521 ft | 450 kts | 314° |
| 2026-05-08 21:53 | 39.14537 | -9.84294 | 20207 ft | 455 kts | 314° |
| 2026-05-08 21:53 | 39.21210 | -9.91998 | 21553 ft | 466 kts | 315° |
| 2026-05-08 21:53 | 39.30996 | -10.03328 | 23455 ft | 480 kts | 315° |
| 2026-05-08 21:54 | 39.41053 | -10.15023 | 25060 ft | 492 kts | 315° |
| 2026-05-08 21:54 | 39.48006 | -10.23139 | 26187 ft | 501 kts | 315° |
| 2026-05-08 21:54 | 39.58453 | -10.35370 | 27685 ft | 513 kts | 315° |
| 2026-05-08 21:54 | 39.69137 | -10.47931 | 29071 ft | 523 kts | 315° |
| 2026-05-08 21:55 | 39.79865 | -10.60605 | 30393 ft | 528 kts | 316° |
| 2026-05-08 21:55 | 39.90621 | -10.73347 | 32133 ft | 518 kts | 315° |
| 2026-05-08 21:55 | 40.01213 | -10.85963 | 33410 ft | 515 kts | 315° |
| 2026-05-08 21:56 | 40.22149 | -11.11072 | 35340 ft | 508 kts | 315° |
| 2026-05-08 21:56 | 40.32537 | -11.23618 | 36085 ft | 506 kts | 315° |
| 2026-05-08 21:56 | 40.42885 | -11.36174 | 36703 ft | 506 kts | 315° |
| 2026-05-08 21:56 | 40.53196 | -11.48736 | 37279 ft | 506 kts | 315° |
| 2026-05-08 21:57 | 40.63536 | -11.61391 | 37697 ft | 507 kts | 315° |
| 2026-05-08 21:57 | 40.84332 | -11.87004 | 37702 ft | 511 kts | 315° |
| 2026-05-08 21:58 | 41.05114 | -12.12837 | 37701 ft | 512 kts | 315° |
| 2026-05-08 21:58 | 41.25842 | -12.38836 | 37692 ft | 512 kts | 315° |
| 2026-05-08 21:59 | 41.46414 | -12.64870 | 37686 ft | 512 kts | 315° |
| 2026-05-08 21:59 | 41.67027 | -12.91213 | 37683 ft | 513 kts | 315° |
| 2026-05-08 22:00 | 41.87679 | -13.17841 | 37694 ft | 513 kts | 315° |
| 2026-05-08 22:00 | 42.08183 | -13.44536 | 37697 ft | 514 kts | 315° |
| 2026-05-08 22:01 | 42.28588 | -13.71354 | 37695 ft | 514 kts | 314° |
| 2026-05-08 22:01 | 42.49045 | -13.97758 | 37705 ft | 512 kts | 325° |
| 2026-05-08 22:01 | 42.62280 | -14.04861 | 37720 ft | 517 kts | 345° |
| 2026-05-08 22:02 | 42.76203 | -14.09941 | 37728 ft | 518 kts | 344° |
| 2026-05-08 22:02 | 43.03841 | -14.20657 | 37755 ft | 516 kts | 343° |
| 2026-05-08 22:03 | 43.31328 | -14.31425 | 37770 ft | 513 kts | 344° |
| 2026-05-08 22:03 | 43.58785 | -14.42288 | 37783 ft | 513 kts | 344° |
| 2026-05-08 22:04 | 43.86223 | -14.53247 | 37799 ft | 511 kts | 344° |
| 2026-05-08 22:04 | 44.13441 | -14.64218 | 37816 ft | 510 kts | 344° |
| 2026-05-08 22:05 | 44.40779 | -14.75349 | 37819 ft | 510 kts | 344° |
| 2026-05-08 22:05 | 44.68040 | -14.86555 | 37836 ft | 509 kts | 343° |
| 2026-05-08 22:06 | 44.95203 | -14.97832 | 37851 ft | 509 kts | 344° |
| 2026-05-08 22:06 | 45.08025 | -15.05632 | 37858 ft | 508 kts | 333° |
| 2026-05-08 22:06 | 45.20550 | -15.14867 | 37858 ft | 508 kts | 332° |
| 2026-05-08 22:07 | 45.45654 | -15.33457 | 37870 ft | 508 kts | 332° |
| 2026-05-08 22:07 | 45.70743 | -15.52209 | 37884 ft | 507 kts | 333° |
| 2026-05-08 22:08 | 45.95700 | -15.71054 | 37887 ft | 505 kts | 333° |
| 2026-05-08 22:08 | 46.20516 | -15.89983 | 37906 ft | 505 kts | 333° |
| 2026-05-08 22:09 | 46.45324 | -16.09103 | 37921 ft | 506 kts | 333° |
| 2026-05-08 22:09 | 46.70142 | -16.28433 | 37929 ft | 506 kts | 333° |
| 2026-05-08 22:10 | 46.94857 | -16.47884 | 37946 ft | 508 kts | 333° |
| 2026-05-08 22:10 | 47.19680 | -16.67629 | 37962 ft | 507 kts | 332° |
| 2026-05-08 22:11 | 47.44423 | -16.87522 | 37978 ft | 506 kts | 332° |
| 2026-05-08 22:11 | 47.69100 | -17.07578 | 37992 ft | 505 kts | 332° |
| 2026-05-08 22:12 | 47.93685 | -17.27777 | 38003 ft | 504 kts | 332° |
| 2026-05-08 22:12 | 48.18186 | -17.48129 | 38016 ft | 503 kts | 332° |
| 2026-05-08 22:13 | 48.42630 | -17.68657 | 38042 ft | 502 kts | 332° |
| 2026-05-08 22:13 | 48.66809 | -17.89188 | 38056 ft | 500 kts | 332° |
| 2026-05-08 22:14 | 48.91054 | -18.10010 | 38076 ft | 499 kts | 332° |
| 2026-05-08 22:14 | 49.15266 | -18.31037 | 38094 ft | 500 kts | 332° |
| 2026-05-08 22:15 | 49.39389 | -18.52225 | 38117 ft | 499 kts | 332° |
| 2026-05-08 22:15 | 49.63398 | -18.73555 | 38140 ft | 498 kts | 331° |
| 2026-05-08 22:16 | 49.87235 | -18.94976 | 38160 ft | 494 kts | 331° |
| 2026-05-08 22:16 | 50.11005 | -19.16586 | 38175 ft | 495 kts | 332° |
| 2026-05-08 22:17 | 50.34700 | -19.38378 | 38203 ft | 493 kts | 331° |
| 2026-05-08 22:17 | 50.58225 | -19.60271 | 38226 ft | 489 kts | 331° |
| 2026-05-08 22:18 | 50.81461 | -19.82149 | 38245 ft | 485 kts | 332° |
| 2026-05-08 22:18 | 51.04467 | -20.04379 | 38276 ft | 483 kts | 328° |
| 2026-05-08 22:19 | 51.26150 | -20.29064 | 38294 ft | 480 kts | 327° |
| 2026-05-08 22:19 | 51.47867 | -20.53677 | 38316 ft | 477 kts | 328° |
| 2026-05-08 22:20 | 51.69504 | -20.78516 | 38341 ft | 476 kts | 328° |
| 2026-05-08 22:20 | 51.91005 | -21.03489 | 38357 ft | 475 kts | 328° |
| 2026-05-08 22:21 | 52.12397 | -21.28638 | 38370 ft | 473 kts | 327° |
| 2026-05-08 22:21 | 52.33674 | -21.53954 | 38387 ft | 472 kts | 327° |
| 2026-05-08 22:22 | 52.54847 | -21.79457 | 38403 ft | 469 kts | 327° |
| 2026-05-08 22:22 | 52.75674 | -22.04850 | 38415 ft | 467 kts | 327° |
| 2026-05-08 22:23 | 52.96489 | -22.30541 | 38434 ft | 464 kts | 327° |
| 2026-05-08 22:23 | 53.17033 | -22.56210 | 38441 ft | 458 kts | 328° |
| 2026-05-08 22:24 | 53.37345 | -22.81898 | 38462 ft | 456 kts | 328° |
| 2026-05-08 22:24 | 53.57506 | -23.07713 | 38468 ft | 454 kts | 327° |
| 2026-05-08 22:25 | 53.77531 | -23.33664 | 38474 ft | 454 kts | 327° |
| 2026-05-08 22:25 | 53.97390 | -23.59726 | 38462 ft | 454 kts | 327° |
| 2026-05-08 22:26 | 54.17265 | -23.86131 | 38493 ft | 452 kts | 327° |
| 2026-05-08 22:26 | 54.36994 | -24.12673 | 38503 ft | 451 kts | 327° |
| 2026-05-08 22:27 | 54.56511 | -24.39263 | 38505 ft | 444 kts | 327° |
| 2026-05-08 22:27 | 54.75726 | -24.65768 | 38518 ft | 440 kts | 327° |
| 2026-05-08 22:28 | 54.94745 | -24.92334 | 38522 ft | 437 kts | 327° |
| 2026-05-08 22:28 | 55.13305 | -25.19643 | 38527 ft | 435 kts | 325° |
| 2026-05-08 22:29 | 55.31501 | -25.47218 | 38536 ft | 431 kts | 325° |
| 2026-05-08 22:29 | 55.49596 | -25.74966 | 38539 ft | 429 kts | 325° |
| 2026-05-08 22:30 | 55.67461 | -26.02710 | 38550 ft | 427 kts | 325° |
| 2026-05-08 22:30 | 55.84983 | -26.30275 | 38550 ft | 416 kts | 326° |
| 2026-05-08 22:31 | 56.02147 | -26.57604 | 38562 ft | 416 kts | 326° |
| 2026-05-08 22:31 | 56.19299 | -26.85265 | 38568 ft | 411 kts | 326° |
| 2026-05-08 22:32 | 56.36236 | -27.12913 | 38571 ft | 408 kts | 325° |
| 2026-05-08 22:32 | 56.52982 | -27.40596 | 38581 ft | 408 kts | 325° |
| 2026-05-08 22:33 | 56.69623 | -27.68454 | 38582 ft | 406 kts | 325° |
| 2026-05-08 22:33 | 56.86129 | -27.96438 | 38583 ft | 404 kts | 324° |
| 2026-05-08 22:34 | 57.02391 | -28.24360 | 38589 ft | 399 kts | 324° |
| 2026-05-08 22:34 | 57.18548 | -28.52441 | 38573 ft | 399 kts | 324° |
| 2026-05-08 22:35 | 57.34534 | -28.80585 | 38586 ft | 396 kts | 324° |
| 2026-05-08 22:35 | 57.50392 | -29.08859 | 38582 ft | 394 kts | 323° |
| 2026-05-08 22:36 | 57.66056 | -29.37140 | 38581 ft | 394 kts | 323° |
| 2026-05-08 22:36 | 57.79210 | -29.61170 | 38581 ft | 394 kts | 323° |
| 2026-05-08 22:37 | 57.97406 | -29.94838 | 38573 ft | 395 kts | 322° |
| 2026-05-08 22:37 | 58.13276 | -30.23601 | 38573 ft | 395 kts | 323° |
| 2026-05-08 22:38 | 58.26474 | -30.47619 | 38564 ft | 398 kts | 321° |
| 2026-05-08 22:38 | 58.42405 | -30.76980 | 38563 ft | 398 kts | 321° |
| 2026-05-08 22:39 | 58.58244 | -31.06557 | 38556 ft | 398 kts | 320° |
| 2026-05-08 22:39 | 58.74054 | -31.36474 | 38547 ft | 396 kts | 320° |
| 2026-05-08 22:40 | 58.89699 | -31.66483 | 38539 ft | 396 kts | 319° |
| 2026-05-08 22:40 | 59.05238 | -31.96695 | 38521 ft | 395 kts | 319° |
| 2026-05-08 22:41 | 59.20599 | -32.26966 | 38527 ft | 395 kts | 318° |
| 2026-05-08 22:41 | 59.36005 | -32.57743 | 38509 ft | 396 kts | 317° |
| 2026-05-08 22:42 | 59.51362 | -32.88851 | 38496 ft | 396 kts | 316° |
| 2026-05-08 22:42 | 59.66758 | -33.20478 | 38479 ft | 402 kts | 316° |
| 2026-05-08 22:43 | 59.82221 | -33.52699 | 38466 ft | 405 kts | 315° |
| 2026-05-08 22:43 | 59.97661 | -33.85336 | 38450 ft | 405 kts | 314° |
| 2026-05-08 22:44 | 60.12971 | -34.18177 | 38435 ft | 406 kts | 314° |
| 2026-05-08 22:44 | 60.28286 | -34.51512 | 38417 ft | 406 kts | 314° |
| 2026-05-08 22:45 | 60.43541 | -34.85212 | 38410 ft | 408 kts | 313° |
| 2026-05-08 22:45 | 60.57379 | -35.21722 | 38389 ft | 409 kts | 306° |
| 2026-05-08 22:46 | 60.70000 | -35.60271 | 38344 ft | 409 kts | 305° |
| 2026-05-08 22:46 | 60.82682 | -35.99605 | 38354 ft | 414 kts | 304° |
| 2026-05-08 22:47 | 60.95257 | -36.39277 | 38335 ft | 414 kts | 303° |
| 2026-05-08 22:47 | 61.07718 | -36.79270 | 38317 ft | 415 kts | 303° |
| 2026-05-08 22:48 | 61.20088 | -37.19676 | 38309 ft | 417 kts | 302° |
| 2026-05-08 22:48 | 61.32393 | -37.60586 | 38303 ft | 421 kts | 301° |
| 2026-05-08 22:49 | 61.44785 | -38.02540 | 38276 ft | 425 kts | 300° |
| 2026-05-08 22:49 | 61.64182 | -38.64846 | 38264 ft | 428 kts | 301° |
| 2026-05-08 22:50 | 61.77068 | -39.07110 | 38261 ft | 429 kts | 300° |
| 2026-05-08 22:50 | 61.89865 | -39.49850 | 38248 ft | 430 kts | 299° |
| 2026-05-08 22:51 | 62.02520 | -39.92919 | 38251 ft | 430 kts | 299° |
| 2026-05-08 22:51 | 62.15067 | -40.36446 | 38243 ft | 429 kts | 298° |
| 2026-05-08 22:52 | 62.27480 | -40.80343 | 38251 ft | 431 kts | 298° |
| 2026-05-08 22:52 | 62.39680 | -41.24331 | 38287 ft | 431 kts | 297° |
| 2026-05-08 22:53 | 62.51873 | -41.69178 | 38289 ft | 433 kts | 296° |
| 2026-05-08 22:53 | 62.63996 | -42.14683 | 38292 ft | 440 kts | 295° |
| 2026-05-08 22:54 | 62.76127 | -42.61139 | 38292 ft | 442 kts | 295° |
| 2026-05-08 22:54 | 62.88138 | -43.08128 | 38272 ft | 442 kts | 294° |
| 2026-05-08 22:55 | 62.99987 | -43.55480 | 38228 ft | 442 kts | 294° |
| 2026-05-08 22:55 | 63.11700 | -44.03326 | 38141 ft | 444 kts | 293° |
| 2026-05-08 22:56 | 63.23304 | -44.51771 | 38097 ft | 449 kts | 292° |
| 2026-05-08 22:56 | 63.29186 | -44.76754 | 38028 ft | 453 kts | 291° |
| 2026-05-08 22:57 | 63.32091 | -44.89187 | 38020 ft | 453 kts | 291° |
| 2026-05-08 22:57 | 63.34984 | -45.01647 | 38006 ft | 453 kts | 291° |
| 2026-05-08 22:58 | 63.37866 | -45.14131 | 37994 ft | 453 kts | 291° |
| 2026-05-08 22:58 | 63.40741 | -45.26663 | 37990 ft | 455 kts | 291° |
| 2026-05-08 22:59 | 63.43600 | -45.39202 | 37974 ft | 456 kts | 290° |
| 2026-05-08 22:59 | 63.46469 | -45.51846 | 37974 ft | 456 kts | 290° |
| 2026-05-08 23:00 | 63.49327 | -45.64521 | 37960 ft | 456 kts | 290° |
| 2026-05-08 23:00 | 63.52172 | -45.77214 | 37960 ft | 455 kts | 290° |
| 2026-05-08 23:01 | 63.55004 | -45.89922 | 37955 ft | 456 kts | 290° |
| 2026-05-08 23:01 | 63.57832 | -46.02698 | 37940 ft | 457 kts | 290° |
| 2026-05-08 23:02 | 63.61372 | -46.18784 | 37930 ft | 457 kts | 290° |
| 2026-05-08 23:02 | 63.72536 | -46.70339 | 37247 ft | 456 kts | 289° |
| 2026-05-08 23:03 | 63.78052 | -46.96278 | 36175 ft | 457 kts | 289° |
| 2026-05-08 23:03 | 63.83549 | -47.22460 | 35158 ft | 462 kts | 288° |
| 2026-05-08 23:03 | 63.89036 | -47.48921 | 34204 ft | 464 kts | 287° |
| 2026-05-08 23:03 | 63.94482 | -47.75544 | 33147 ft | 465 kts | 287° |
| 2026-05-08 23:04 | 63.99884 | -48.02282 | 31596 ft | 461 kts | 287° |
| 2026-05-08 23:04 | 64.05154 | -48.28735 | 28754 ft | 453 kts | 286° |
| 2026-05-08 23:04 | 64.10227 | -48.54472 | 26716 ft | 437 kts | 286° |
| 2026-05-08 23:04 | 64.15126 | -48.79707 | 24696 ft | 433 kts | 287° |
| 2026-05-08 23:05 | 64.19885 | -49.04484 | 22635 ft | 425 kts | 287° |
| 2026-05-08 23:05 | 64.24558 | -49.29123 | 20624 ft | 415 kts | 286° |
| 2026-05-08 23:05 | 64.29106 | -49.53366 | 18615 ft | 411 kts | 288° |
| 2026-05-08 23:05 | 64.33539 | -49.77355 | 16518 ft | 401 kts | 288° |
| 2026-05-08 23:06 | 64.37793 | -50.00818 | 14453 ft | 386 kts | 285° |
| 2026-05-08 23:06 | 64.38516 | -50.24767 | 12591 ft | 367 kts | 265° |
| 2026-05-08 23:06 | 64.38359 | -50.47863 | 10875 ft | 339 kts | 264° |
| 2026-05-08 23:06 | 64.38194 | -50.67657 | 10411 ft | 281 kts | 263° |
| 2026-05-08 23:07 | 64.38022 | -50.84057 | 9721 ft | 263 kts | 262° |
| 2026-05-08 23:07 | 64.37974 | -50.88299 | 9487 ft | 270 kts | 262° |
| 2026-05-08 23:07 | 64.37922 | -50.92739 | 9388 ft | 280 kts | 262° |
| 2026-05-08 23:07 | 64.37870 | -50.97223 | 8951 ft | 279 kts | 262° |
| 2026-05-08 23:08 | 64.37817 | -51.01708 | 8552 ft | 279 kts | 262° |
| 2026-05-08 23:08 | 64.37763 | -51.06196 | 8260 ft | 279 kts | 262° |
| 2026-05-08 23:08 | 64.37708 | -51.10672 | 7954 ft | 278 kts | 262° |
| 2026-05-08 23:08 | 64.37660 | -51.15147 | 7677 ft | 279 kts | 261° |
| 2026-05-08 23:09 | 64.37600 | -51.19645 | 7385 ft | 281 kts | 261° |
| 2026-05-08 23:09 | 64.37649 | -51.24119 | 7161 ft | 286 kts | 272° |
| 2026-05-08 23:09 | 64.38131 | -51.28621 | 6946 ft | 289 kts | 279° |
| 2026-05-08 23:09 | 64.38765 | -51.33123 | 6277 ft | 302 kts | 279° |
| 2026-05-08 23:10 | 64.39432 | -51.37794 | 5896 ft | 306 kts | 281° |
| 2026-05-08 23:10 | 64.40091 | -51.42441 | 5836 ft | 297 kts | 279° |
| 2026-05-08 23:10 | 64.40607 | -51.46842 | 5573 ft | 264 kts | 262° |
| 2026-05-08 23:10 | 64.40291 | -51.50521 | 5300 ft | 210 kts | 224° |
| 2026-05-08 23:11 | 64.39378 | -51.52643 | 5097 ft | 170 kts | 203° |
| 2026-05-08 23:11 | 64.38414 | -51.53770 | 4927 ft | 143 kts | 188° |
| 2026-05-08 23:11 | 64.37482 | -51.54439 | 4501 ft | 141 kts | 188° |
| 2026-05-08 23:11 | 64.36562 | -51.55119 | 4266 ft | 135 kts | 189° |
| 2026-05-08 23:12 | 64.35694 | -51.55778 | 3953 ft | 127 kts | 189° |
| 2026-05-08 23:12 | 64.34883 | -51.56401 | 3657 ft | 120 kts | 189° |
| 2026-05-08 23:12 | 64.34096 | -51.56990 | 3383 ft | 117 kts | 188° |
| 2026-05-08 23:12 | 64.33329 | -51.57539 | 3198 ft | 117 kts | 188° |
| 2026-05-08 23:13 | 64.32553 | -51.58108 | 3034 ft | 118 kts | 188° |
| 2026-05-08 23:13 | 64.31767 | -51.58688 | 2853 ft | 119 kts | 188° |
| 2026-05-08 23:13 | 64.30973 | -51.59269 | 2684 ft | 119 kts | 188° |
| 2026-05-08 23:13 | 64.30181 | -51.59847 | 2517 ft | 120 kts | 190° |
| 2026-05-08 23:14 | 64.29385 | -51.60432 | 2342 ft | 120 kts | 191° |
| 2026-05-08 23:14 | 64.28589 | -51.61015 | 2163 ft | 120 kts | 191° |
| 2026-05-08 23:14 | 64.27797 | -51.61594 | 1980 ft | 119 kts | 190° |
| 2026-05-08 23:14 | 64.27001 | -51.62174 | 1804 ft | 121 kts | 191° |
| 2026-05-08 23:15 | 64.26208 | -51.62753 | 1637 ft | 121 kts | 192° |
| 2026-05-08 23:15 | 64.25406 | -51.63339 | 1452 ft | 121 kts | 191° |
| 2026-05-08 23:15 | 64.24601 | -51.63926 | 1273 ft | 122 kts | 191° |
| 2026-05-08 23:15 | 64.23783 | -51.64520 | 1090 ft | 125 kts | 193° |
| 2026-05-08 23:16 | 64.22939 | -51.65135 | 909 ft | 129 kts | 196° |
| 2026-05-08 23:16 | 64.22078 | -51.65761 | 723 ft | 130 kts | 197° |
| 2026-05-08 23:16 | 64.21210 | -51.66395 | 529 ft | 130 kts | 197° |
| 2026-05-08 23:16 | 64.20333 | -51.67020 | 365 ft | 135 kts | 199° |
| 2026-05-08 23:17 | 64.19473 | -51.67653 | 271 ft | 123 kts | 198° |
| 2026-05-08 23:17 | 64.18866 | -51.68095 | 269 ft | 50 kts | 198° |
| 2026-05-08 23:17 | 64.18691 | -51.68222 | 267 ft | 14 kts | 193° |
| 2026-05-08 23:17 | 64.18640 | -51.68104 | 261 ft | 12 kts | 109° |
| 2026-05-08 23:18 | 64.18634 | -51.68065 | 260 ft | 0 kts | 108° |
| 2026-05-08 23:18 | 64.18627 | -51.68013 | 260 ft | 8 kts | 108° |
| 2026-05-08 23:18 | 64.18608 | -51.67878 | 260 ft | 8 kts | 107° |
| 2026-05-08 23:19 | 64.18589 | -51.67793 | 260 ft | 4 kts | 141° |
| 2026-05-08 23:19 | 64.18575 | -51.67777 | 260 ft | 0 kts | 153° |
| 2026-05-08 23:19 | 64.18563 | -51.67763 | 260 ft | 1 kts | 153° |
| 2026-05-08 23:19 | 64.18560 | -51.67760 | 260 ft | 0 kts | 153° |